createdAt,value
2022-08-03T00:00:21.314Z,3.80
2022-08-03T00:02:48.074Z,3.50
2022-08-03T00:05:14.814Z,4.53
2022-08-03T00:07:41.462Z,3.60
2022-08-03T00:10:08.700Z,4.72
2022-08-03T00:12:36.470Z,3.30
2022-08-03T00:15:04.075Z,3.60
2022-08-03T00:17:53.014Z,4.03
2022-08-03T00:20:21.538Z,3.97
2022-08-03T00:22:48.580Z,3.97
2022-08-03T00:25:15.304Z,4.15
2022-08-03T00:27:42.065Z,4.13
2022-08-03T00:30:09.196Z,4.07
2022-08-03T00:32:35.830Z,4.00
2022-08-03T00:35:08.124Z,4.27
2022-08-03T00:37:41.452Z,3.78
2022-08-03T00:40:13.712Z,3.78
2022-08-03T00:42:50.656Z,3.72
2022-08-03T00:45:18.586Z,3.63
2022-08-03T00:47:45.892Z,3.90
2022-08-03T00:50:13.154Z,3.53
2022-08-03T00:52:40.037Z,3.90
2022-08-03T00:55:06.907Z,3.78
2022-08-03T00:57:33.703Z,3.70
2022-08-03T01:00:00.957Z,4.13
2022-08-03T01:02:28.871Z,3.65
2022-08-03T01:04:56.022Z,4.03
2022-08-03T01:07:35.800Z,3.95
2022-08-03T01:10:12.540Z,3.75
2022-08-03T01:12:48.817Z,4.35
2022-08-03T01:15:43.629Z,4.32
2022-08-03T01:18:18.528Z,4.22
2022-08-03T01:20:49.486Z,4.63
2022-08-03T01:23:59.111Z,4.13
2022-08-03T01:26:53.762Z,4.13
2022-08-03T01:29:58.571Z,3.75
2022-08-03T01:33:00.126Z,3.92
2022-08-03T01:35:44.832Z,3.80
2022-08-03T01:38:21.040Z,4.60
2022-08-03T01:40:49.070Z,4.63
2022-08-03T01:44:28.057Z,4.43
2022-08-03T01:46:08.735Z,4.35
2022-08-03T01:48:38.067Z,4.20
2022-08-03T01:51:05.372Z,5.15
2022-08-03T01:53:33.876Z,4.60
2022-08-03T01:56:02.926Z,5.82
2022-08-03T01:58:31.154Z,4.85
2022-08-03T02:01:01.159Z,3.97
2022-08-03T02:03:30.039Z,4.03
2022-08-03T02:06:59.608Z,4.10
2022-08-03T02:08:48.496Z,4.25
2022-08-03T02:11:15.511Z,5.47
2022-08-03T02:13:44.174Z,4.70
2022-08-03T02:16:12.791Z,3.97
2022-08-03T02:18:40.643Z,4.00
2022-08-03T02:21:11.094Z,4.20
2022-08-03T02:23:38.836Z,4.38
2022-08-03T02:26:09.415Z,4.07
2022-08-03T02:28:38.711Z,3.95
2022-08-03T02:31:11.855Z,4.03
2022-08-03T02:33:43.334Z,4.32
2022-08-03T02:36:13.373Z,4.60
2022-08-03T02:38:43.575Z,4.00
2022-08-03T02:41:17.742Z,4.03
2022-08-03T02:44:06.134Z,4.35
2022-08-03T02:46:38.737Z,4.30
2022-08-03T02:49:35.001Z,3.85
2022-08-03T02:51:54.430Z,4.00
2022-08-03T02:54:23.599Z,4.72
2022-08-03T02:56:51.716Z,4.30
2022-08-03T02:59:20.139Z,5.13
2022-08-03T03:01:47.679Z,4.45
2022-08-03T03:04:15.444Z,4.43
2022-08-03T03:06:44.452Z,4.10
2022-08-03T03:09:14.357Z,4.53
2022-08-03T03:11:41.604Z,4.80
2022-08-03T03:14:11.414Z,4.13
2022-08-03T03:16:39.494Z,4.18
2022-08-03T03:19:08.603Z,4.07
2022-08-03T03:21:36.671Z,3.85
2022-08-03T03:24:05.008Z,4.40
2022-08-03T03:26:32.216Z,4.07
2022-08-03T03:28:59.305Z,4.13
2022-08-03T03:31:26.000Z,4.18
2022-08-03T03:33:52.860Z,4.50
2022-08-03T03:36:19.666Z,4.20
2022-08-03T03:38:46.395Z,4.90
2022-08-03T03:41:13.238Z,4.30
2022-08-03T03:43:40.134Z,4.33
2022-08-03T03:46:06.804Z,4.43
2022-08-03T03:48:33.697Z,4.80
2022-08-03T03:51:01.178Z,4.13
2022-08-03T03:53:27.725Z,4.07
2022-08-03T03:56:01.673Z,4.10
2022-08-03T03:58:30.044Z,4.20
2022-08-03T04:00:56.754Z,4.28
2022-08-03T04:03:23.546Z,4.23
2022-08-03T04:06:08.951Z,4.43
2022-08-03T04:08:54.297Z,4.28
2022-08-03T04:11:27.482Z,4.32
2022-08-03T04:14:12.897Z,4.35
2022-08-03T04:16:44.009Z,4.78
2022-08-03T04:19:14.269Z,4.18
2022-08-03T04:21:44.459Z,5.00
2022-08-03T04:24:13.614Z,4.63
2022-08-03T04:26:42.837Z,4.35
2022-08-03T04:29:12.029Z,4.38
2022-08-03T04:31:40.068Z,4.20
2022-08-03T04:34:07.794Z,4.40
2022-08-03T04:36:40.159Z,4.97
2022-08-03T04:39:27.717Z,4.90
2022-08-03T04:42:08.802Z,4.15
2022-08-03T04:44:41.677Z,5.35
2022-08-03T04:47:09.020Z,5.03
2022-08-03T04:49:37.973Z,4.85
2022-08-03T04:52:07.301Z,5.70
2022-08-03T04:54:50.001Z,4.43
2022-08-03T04:57:22.310Z,4.53
2022-08-03T04:59:58.269Z,4.38
2022-08-03T05:02:28.671Z,6.45
2022-08-03T05:04:55.242Z,4.73
2022-08-03T05:07:24.980Z,4.30
2022-08-03T05:09:57.568Z,4.60
2022-08-03T05:12:32.601Z,6.10
2022-08-03T05:15:00.112Z,6.10
2022-08-03T05:17:27.066Z,4.72
2022-08-03T05:19:53.670Z,3.93
2022-08-03T05:22:20.896Z,4.18
2022-08-03T05:24:47.547Z,4.00
2022-08-03T05:27:19.309Z,5.03
2022-08-03T05:29:46.811Z,4.03
2022-08-03T05:32:13.550Z,4.05
2022-08-03T05:34:40.131Z,4.43
2022-08-03T05:37:07.513Z,4.05
2022-08-03T05:39:34.883Z,4.43
2022-08-03T05:42:02.189Z,4.05
2022-08-03T05:44:28.829Z,3.90
2022-08-03T05:46:57.574Z,3.65
2022-08-03T05:49:24.168Z,3.58
2022-08-03T05:52:00.082Z,4.20
2022-08-03T05:54:56.042Z,3.80
2022-08-03T05:57:23.641Z,3.80
2022-08-03T05:59:53.825Z,3.38
2022-08-03T06:02:26.619Z,3.72
2022-08-03T06:04:53.266Z,3.70
2022-08-03T06:07:19.935Z,3.93
2022-08-03T06:10:35.427Z,4.10
2022-08-03T06:12:36.261Z,4.50
2022-08-03T06:15:04.693Z,4.53
2022-08-03T06:17:37.335Z,4.07
2022-08-03T06:20:05.614Z,4.40
2022-08-03T06:22:32.243Z,3.90
2022-08-03T06:24:59.014Z,4.97
2022-08-03T06:27:37.006Z,4.05
2022-08-03T06:30:04.732Z,4.95
2022-08-03T06:32:31.355Z,3.78
2022-08-03T06:34:57.935Z,4.40
2022-08-03T06:37:24.848Z,4.25
2022-08-03T06:39:51.450Z,3.42
2022-08-03T06:42:18.366Z,3.70
2022-08-03T06:44:47.701Z,3.72
2022-08-03T06:47:14.274Z,3.67
2022-08-03T06:49:41.756Z,3.83
2022-08-03T06:54:36.063Z,3.47
2022-08-03T06:57:02.927Z,3.38
2022-08-03T07:00:10.939Z,4.00
2022-08-03T07:02:19.116Z,5.05
2022-08-03T07:04:47.517Z,4.30
2022-08-03T07:07:14.208Z,3.83
2022-08-03T07:09:40.868Z,3.50
2022-08-03T07:12:08.670Z,4.40
2022-08-03T07:14:35.242Z,3.65
2022-08-03T07:17:01.855Z,3.20
2022-08-03T07:19:38.070Z,3.15
2022-08-03T07:22:04.863Z,3.67
2022-08-03T07:24:31.439Z,3.20
2022-08-03T07:26:58.078Z,3.90
2022-08-03T07:29:25.112Z,3.63
2022-08-03T07:31:51.741Z,3.50
2022-08-03T07:34:18.481Z,3.03
2022-08-03T07:36:45.048Z,3.20
2022-08-03T07:39:16.639Z,3.13
2022-08-03T07:41:44.773Z,3.30
2022-08-03T07:44:11.472Z,3.33
2022-08-03T07:46:38.017Z,3.30
2022-08-03T07:49:05.387Z,3.23
2022-08-03T07:53:59.185Z,3.50
2022-08-03T07:56:25.877Z,2.80
2022-08-03T07:58:53.568Z,3.70
2022-08-03T08:01:20.566Z,3.13
2022-08-03T08:03:53.113Z,3.28
2022-08-03T08:06:21.033Z,3.10
2022-08-03T08:11:14.312Z,3.10
2022-08-03T08:13:40.952Z,2.92
2022-08-03T08:16:07.602Z,3.38
2022-08-03T08:18:34.614Z,3.35
2022-08-03T08:21:03.303Z,2.95
2022-08-03T08:23:42.149Z,2.80
2022-08-03T08:26:09.671Z,3.42
2022-08-03T08:28:36.235Z,2.55
2022-08-03T08:31:02.887Z,3.80
2022-08-03T08:33:47.907Z,2.80
2022-08-03T08:36:16.118Z,2.70
2022-08-03T08:38:44.715Z,2.63
2022-08-03T08:41:11.875Z,2.35
2022-08-03T08:46:08.385Z,3.28
2022-08-03T08:48:36.384Z,2.38
2022-08-03T08:51:03.477Z,2.50
2022-08-03T08:56:01.645Z,2.58
2022-08-03T08:58:41.526Z,2.40
2022-08-03T09:01:08.145Z,2.10
2022-08-03T09:03:34.792Z,2.30
2022-08-03T09:06:02.604Z,2.55
2022-08-03T09:08:30.662Z,1.80
2022-08-03T09:10:57.421Z,1.80
2022-08-03T09:13:24.534Z,2.03
2022-08-03T09:16:15.051Z,2.55
2022-08-03T09:18:44.447Z,2.40
2022-08-03T09:21:35.512Z,2.20
2022-08-03T09:24:05.673Z,3.05
2022-08-03T09:26:35.902Z,1.92
2022-08-03T09:29:11.209Z,2.72
2022-08-03T09:31:46.020Z,2.50
2022-08-03T09:34:15.331Z,2.80
2022-08-03T09:36:41.925Z,2.58
2022-08-03T09:39:15.051Z,2.75
2022-08-03T09:41:48.396Z,2.60
2022-08-03T09:44:24.267Z,2.35
2022-08-03T09:46:55.439Z,2.50
2022-08-03T09:49:22.611Z,2.28
2022-08-03T09:52:37.582Z,3.25
2022-08-03T09:54:36.022Z,4.07
2022-08-03T09:57:02.783Z,2.72
2022-08-03T09:59:31.017Z,2.72
2022-08-03T10:02:00.009Z,2.33
2022-08-03T10:04:26.875Z,1.90
2022-08-03T10:07:23.746Z,2.20
2022-08-03T10:09:55.824Z,2.15
2022-08-03T10:12:22.662Z,2.35
2022-08-03T10:14:52.386Z,2.10
2022-08-03T10:17:20.588Z,2.22
2022-08-03T10:19:47.945Z,1.70
2022-08-03T10:22:22.096Z,2.20
2022-08-03T10:25:11.612Z,2.00
2022-08-03T10:27:45.054Z,2.20
2022-08-03T10:30:12.269Z,1.63
2022-08-03T10:32:42.505Z,1.95
2022-08-03T10:35:19.650Z,1.70
2022-08-03T10:38:26.259Z,1.15
2022-08-03T10:40:58.750Z,0.68
2022-08-03T10:43:28.958Z,0.93
2022-08-03T10:45:56.861Z,1.20
2022-08-03T10:48:24.290Z,1.10
2022-08-03T10:50:51.095Z,0.75
2022-08-03T10:53:34.766Z,1.73
2022-08-03T10:56:35.734Z,1.25
2022-08-03T10:59:06.982Z,1.33
2022-08-03T11:02:00.405Z,1.33
2022-08-03T11:04:29.967Z,1.10
2022-08-03T11:07:16.473Z,1.15
2022-08-03T11:12:30.326Z,1.25
2022-08-03T11:15:03.939Z,1.52
2022-08-03T11:17:31.797Z,1.00
2022-08-03T11:19:58.763Z,1.45
2022-08-03T11:22:26.144Z,1.10
2022-08-03T11:24:56.458Z,1.83
2022-08-03T11:27:40.941Z,1.80
2022-08-03T11:30:27.832Z,1.38
2022-08-03T11:32:58.022Z,1.25
2022-08-03T11:35:29.397Z,2.08
2022-08-03T11:38:03.302Z,2.22
2022-08-03T11:40:44.957Z,1.50
2022-08-03T11:43:31.447Z,1.50
2022-08-03T11:46:03.421Z,1.38
2022-08-03T11:48:38.788Z,1.63
2022-08-03T11:51:08.229Z,1.35
2022-08-03T11:53:42.012Z,1.48
2022-08-03T11:56:12.971Z,1.40
2022-08-03T11:59:10.956Z,1.17
2022-08-03T12:01:34.415Z,1.38
2022-08-03T12:04:05.410Z,1.27
2022-08-03T12:06:52.008Z,1.00
2022-08-03T12:09:18.645Z,1.30
2022-08-03T12:11:51.653Z,1.42
2022-08-03T12:14:48.940Z,1.50
2022-08-03T12:17:14.946Z,1.23
2022-08-03T12:19:42.988Z,1.55
2022-08-03T12:22:09.633Z,1.50
2022-08-03T12:27:09.635Z,1.45
2022-08-03T12:29:36.550Z,1.30
2022-08-03T12:32:03.391Z,1.58
2022-08-03T12:34:47.449Z,1.20
2022-08-03T12:37:21.883Z,1.40
2022-08-03T12:40:00.524Z,1.42
2022-08-03T12:42:32.140Z,1.45
2022-08-03T12:47:25.262Z,1.65
2022-08-03T12:52:22.207Z,1.70
2022-08-03T12:54:59.711Z,1.73
2022-08-03T12:57:41.457Z,1.50
2022-08-03T13:00:21.830Z,1.58
2022-08-03T13:03:39.134Z,1.52
2022-08-03T13:05:55.025Z,1.35
2022-08-03T13:08:23.608Z,1.58
2022-08-03T13:10:50.831Z,1.55
2022-08-03T13:13:17.489Z,1.40
2022-08-03T13:18:17.212Z,1.55
2022-08-03T13:20:44.390Z,1.42
2022-08-03T13:23:15.514Z,1.20
2022-08-03T13:25:55.009Z,1.48
2022-08-03T13:28:22.600Z,1.40
2022-08-03T13:30:49.315Z,1.30
2022-08-03T13:33:16.116Z,1.38
2022-08-03T13:35:42.723Z,1.38
2022-08-03T13:38:09.358Z,1.50
2022-08-03T13:40:41.624Z,1.85
2022-08-03T13:43:09.105Z,1.30
2022-08-03T13:45:35.806Z,1.33
2022-08-03T13:48:02.545Z,1.35
2022-08-03T13:50:30.111Z,1.60
2022-08-03T13:52:57.968Z,1.30
2022-08-03T13:55:24.827Z,1.40
2022-08-03T13:58:03.024Z,1.40
2022-08-03T14:00:33.907Z,1.77
2022-08-03T14:03:07.992Z,2.28
2022-08-03T14:05:39.238Z,3.67
2022-08-03T14:08:07.293Z,1.90
2022-08-03T14:10:39.753Z,2.25
2022-08-03T14:13:07.247Z,2.30
2022-08-03T14:15:37.481Z,4.20
2022-08-03T14:18:05.512Z,1.63
2022-08-03T14:20:37.512Z,1.60
2022-08-03T14:23:06.967Z,1.42
2022-08-03T14:25:49.851Z,1.23
2022-08-03T14:28:18.665Z,1.48
2022-08-03T14:30:45.469Z,1.70
2022-08-03T14:33:12.052Z,2.35
2022-08-03T14:35:38.724Z,1.60
2022-08-03T14:38:06.173Z,1.60
2022-08-03T14:40:32.946Z,1.60
2022-08-03T14:42:59.611Z,1.60
2022-08-03T14:45:26.184Z,2.13
2022-08-03T14:50:10.425Z,1.92
2022-08-03T14:50:44.180Z,1.60
2022-08-03T14:53:12.734Z,1.60
2022-08-03T14:55:49.384Z,1.58
2022-08-03T14:58:21.061Z,1.50
2022-08-03T15:00:49.561Z,2.42
2022-08-03T15:03:17.524Z,1.15
2022-08-03T15:05:44.737Z,1.67
2022-08-03T15:08:11.813Z,1.48
2022-08-03T15:10:40.659Z,1.65
2022-08-03T15:13:12.811Z,1.60
2022-08-03T15:15:40.211Z,1.60
2022-08-03T15:18:06.870Z,1.67
2022-08-03T15:20:43.877Z,1.52
2022-08-03T15:23:11.812Z,1.70
2022-08-03T15:26:32.241Z,2.00
2022-08-03T15:28:25.304Z,1.58
2022-08-03T15:30:53.888Z,1.50
2022-08-03T15:33:20.630Z,1.38
2022-08-03T15:35:47.866Z,2.10
2022-08-03T15:38:14.837Z,1.63
2022-08-03T15:40:41.835Z,1.70
2022-08-03T15:43:08.799Z,1.80
2022-08-03T15:45:36.332Z,1.33
2022-08-03T15:48:05.219Z,1.58
2022-08-03T15:50:31.830Z,1.75
2022-08-03T15:52:58.446Z,1.58
2022-08-03T15:55:25.147Z,2.15
2022-08-03T15:59:07.604Z,4.40
2022-08-03T16:00:39.646Z,1.73
2022-08-03T16:03:06.287Z,1.80
2022-08-03T16:05:33.067Z,1.60
2022-08-03T16:08:03.466Z,1.63
2022-08-03T16:10:31.460Z,2.05
2022-08-03T16:13:00.852Z,1.55
2022-08-03T16:15:28.044Z,1.75
2022-08-03T16:17:54.864Z,1.10
2022-08-03T16:20:30.862Z,1.60
2022-08-03T16:23:00.855Z,1.48
2022-08-03T16:25:33.158Z,1.50
2022-08-03T16:28:08.177Z,1.25
2022-08-03T16:30:40.180Z,1.45
2022-08-03T16:33:06.973Z,1.50
2022-08-03T16:35:33.881Z,1.55
2022-08-03T16:38:00.616Z,1.60
2022-08-03T16:40:27.451Z,1.45
2022-08-03T16:42:54.509Z,2.70
2022-08-03T16:45:21.644Z,1.60
2022-08-03T16:47:48.330Z,1.67
2022-08-03T16:50:28.548Z,1.60
2022-08-03T16:52:55.204Z,1.48
2022-08-03T16:55:48.885Z,1.58
2022-08-03T16:58:08.576Z,0.88
2022-08-03T17:00:41.533Z,1.20
2022-08-03T17:03:12.531Z,0.98
2022-08-03T17:05:48.246Z,1.45
2022-08-03T17:08:18.930Z,1.10
2022-08-03T17:10:53.773Z,1.23
2022-08-03T17:13:22.617Z,1.23
2022-08-03T17:16:00.752Z,1.88
2022-08-03T17:18:34.145Z,0.95
2022-08-03T17:21:06.320Z,0.93
2022-08-03T17:23:37.307Z,1.23
2022-08-03T17:26:10.623Z,1.90
2022-08-03T17:28:51.983Z,1.40
2022-08-03T17:31:31.234Z,1.95
2022-08-03T17:34:01.570Z,2.00
2022-08-03T17:36:53.922Z,1.38
2022-08-03T17:39:17.975Z,1.42
2022-08-03T17:41:48.995Z,1.33
2022-08-03T17:44:37.668Z,1.42
2022-08-03T17:47:07.147Z,1.23
2022-08-03T17:49:39.786Z,1.20
2022-08-03T17:52:28.254Z,1.83
2022-08-03T17:55:55.231Z,1.20
2022-08-03T17:58:02.803Z,1.10
2022-08-03T18:00:52.141Z,1.27
2022-08-03T18:03:58.126Z,1.85
2022-08-03T18:06:27.937Z,1.35
2022-08-03T18:09:04.914Z,1.10
2022-08-03T18:11:50.739Z,1.13
2022-08-03T18:14:29.528Z,0.95
2022-08-03T18:17:04.902Z,0.90
2022-08-03T18:20:02.660Z,1.08
2022-08-03T18:22:25.251Z,1.90
2022-08-03T18:24:52.669Z,0.93
2022-08-03T18:27:21.349Z,1.10
2022-08-03T18:29:49.820Z,0.88
2022-08-03T18:32:18.154Z,1.40
2022-08-03T18:34:53.055Z,1.10
2022-08-03T18:37:25.251Z,0.93
2022-08-03T18:39:55.695Z,1.05
2022-08-03T18:42:26.216Z,1.35
2022-08-03T18:44:56.144Z,1.10
2022-08-03T18:47:52.103Z,1.60
2022-08-03T18:50:57.871Z,1.42
2022-08-03T18:54:03.222Z,1.83
2022-08-03T18:56:45.000Z,1.60
2022-08-03T18:59:30.273Z,1.50
2022-08-03T19:02:05.499Z,1.50
2022-08-03T19:04:44.765Z,1.90
2022-08-03T19:07:17.466Z,1.88
2022-08-03T19:09:54.614Z,1.85
2022-08-03T19:12:33.812Z,1.20
2022-08-03T19:15:10.434Z,1.20
2022-08-03T19:17:53.309Z,1.30
2022-08-03T19:20:34.994Z,2.15
2022-08-03T19:23:01.842Z,1.90
2022-08-03T19:28:03.915Z,1.65
2022-08-03T19:30:38.998Z,5.63
2022-08-03T19:33:15.637Z,2.42
2022-08-03T19:35:54.990Z,2.00
2022-08-03T19:41:13.970Z,1.50
2022-08-03T19:43:53.210Z,2.00
2022-08-03T19:46:22.285Z,1.70
2022-08-03T19:49:10.720Z,1.83
2022-08-03T19:52:02.512Z,2.55
2022-08-03T19:54:45.773Z,2.20
2022-08-03T19:57:23.268Z,1.85
2022-08-03T19:59:52.541Z,2.33
2022-08-03T20:02:26.294Z,2.38
2022-08-03T20:04:57.638Z,1.98
2022-08-03T20:07:28.223Z,1.90
2022-08-03T20:09:56.662Z,2.00
2022-08-03T20:12:27.465Z,2.10
2022-08-03T20:14:57.401Z,1.90
2022-08-03T20:17:54.422Z,2.42
2022-08-03T21:13:02.596Z,2.45
2022-08-03T21:44:49.112Z,1.42
2022-08-03T21:47:16.167Z,2.10
2022-08-03T21:50:07.622Z,1.70
2022-08-03T21:52:41.119Z,1.42
2022-08-03T21:55:08.088Z,2.47
2022-08-03T21:57:37.669Z,1.63
2022-08-03T22:00:14.720Z,2.10
2022-08-03T22:02:45.047Z,1.67
2022-08-03T22:05:24.936Z,1.52
2022-08-03T22:07:56.826Z,1.90
2022-08-03T22:10:23.731Z,1.45
2022-08-03T22:12:50.431Z,1.30
2022-08-03T22:15:17.294Z,2.15
2022-08-03T22:17:55.937Z,1.27
2022-08-03T22:20:24.411Z,2.08
2022-08-03T22:22:55.797Z,1.70
2022-08-03T22:25:28.766Z,2.15
2022-08-03T22:27:56.361Z,1.75
2022-08-03T22:30:22.967Z,2.05
2022-08-03T22:32:51.962Z,1.60
2022-08-03T22:35:21.380Z,1.70
2022-08-03T22:37:54.238Z,1.40
2022-08-03T22:40:21.281Z,1.67
2022-08-03T22:42:52.215Z,1.67
2022-08-03T22:46:07.542Z,1.50
2022-08-03T22:50:34.976Z,2.30
2022-08-03T22:53:01.776Z,2.05
2022-08-03T22:55:28.391Z,1.98
2022-08-03T22:57:56.035Z,1.50
2022-08-03T23:00:23.774Z,1.85
2022-08-03T23:06:02.592Z,1.73
2022-08-03T23:08:13.977Z,1.65
2022-08-03T23:10:46.847Z,1.52
2022-08-03T23:13:16.443Z,2.03
2022-08-03T23:15:56.808Z,1.80
2022-08-03T23:18:24.875Z,1.90
2022-08-03T23:20:53.265Z,1.80
2022-08-03T23:23:20.193Z,1.95
2022-08-03T23:25:49.828Z,2.15
2022-08-03T23:28:17.334Z,1.80
2022-08-03T23:30:45.531Z,1.65
2022-08-03T23:33:14.966Z,1.73
2022-08-03T23:38:48.136Z,1.90
2022-08-03T23:41:15.213Z,2.03
2022-08-03T23:43:51.757Z,1.85
2022-08-03T23:46:22.176Z,1.85
2022-08-03T23:48:49.618Z,1.58
2022-08-03T23:54:23.948Z,1.83
2022-08-03T23:56:59.964Z,1.65
